createdAt,value
2022-10-17T00:01:23.454Z,83.10
2022-10-17T00:04:25.818Z,83.10
2022-10-17T00:07:28.177Z,83.10
2022-10-17T00:10:30.657Z,83.10
2022-10-17T00:16:55.728Z,83.10
2022-10-17T00:20:00.251Z,82.90
2022-10-17T00:23:02.391Z,83.10
2022-10-17T00:26:05.935Z,82.90
2022-10-17T00:29:08.113Z,83.00
2022-10-17T00:32:10.280Z,82.90
2022-10-17T00:35:12.529Z,83.00
2022-10-17T00:38:14.675Z,83.00
2022-10-17T00:41:20.578Z,83.00
2022-10-17T00:44:31.905Z,83.00
2022-10-17T00:47:35.349Z,83.00
2022-10-17T00:50:39.936Z,83.00
2022-10-17T00:53:42.327Z,83.00
2022-10-17T00:56:46.958Z,83.00
2022-10-17T00:59:53.161Z,83.00
2022-10-17T01:02:55.403Z,83.00
2022-10-17T01:05:57.795Z,83.00
2022-10-17T01:09:00.137Z,82.90
2022-10-17T01:12:19.244Z,82.90
2022-10-17T01:15:32.903Z,83.00
2022-10-17T01:18:59.060Z,83.00
2022-10-17T01:22:04.407Z,82.90
2022-10-17T01:25:12.097Z,83.00
2022-10-17T01:28:55.525Z,82.90
2022-10-17T01:32:00.765Z,82.90
2022-10-17T01:35:12.387Z,82.80
2022-10-17T01:38:26.834Z,82.80
2022-10-17T01:41:36.197Z,82.80
2022-10-17T01:45:07.700Z,82.80
2022-10-17T01:48:18.866Z,82.80
2022-10-17T01:51:33.343Z,82.70
2022-10-17T01:54:59.835Z,82.60
2022-10-17T01:58:08.269Z,82.70
2022-10-17T02:01:13.032Z,82.70
2022-10-17T02:04:16.620Z,82.60
2022-10-17T02:07:18.762Z,82.50
2022-10-17T02:10:53.000Z,82.50
2022-10-17T02:14:21.430Z,82.60
2022-10-17T02:18:14.504Z,82.40
2022-10-17T02:21:47.620Z,82.40
2022-10-17T02:24:58.366Z,82.40
2022-10-17T02:28:03.610Z,82.40
2022-10-17T02:31:26.882Z,82.40
2022-10-17T02:34:38.469Z,82.40
2022-10-17T02:37:44.650Z,82.40
2022-10-17T02:40:49.670Z,82.40
2022-10-17T02:43:55.619Z,82.30
2022-10-17T02:47:09.029Z,82.30
2022-10-17T02:50:11.765Z,82.20
2022-10-17T02:53:25.185Z,82.20
2022-10-17T02:56:31.077Z,82.20
2022-10-17T02:59:36.266Z,82.10
2022-10-17T03:02:41.448Z,82.10
2022-10-17T03:05:44.703Z,82.00
2022-10-17T03:08:46.814Z,81.90
2022-10-17T03:11:49.020Z,81.80
2022-10-17T03:14:51.257Z,81.90
2022-10-17T03:17:53.461Z,81.80
2022-10-17T03:20:55.770Z,81.80
2022-10-17T03:23:58.494Z,81.80
2022-10-17T03:27:00.649Z,81.70
2022-10-17T03:30:02.840Z,81.70
2022-10-17T03:33:06.621Z,81.70
2022-10-17T03:36:11.346Z,81.60
2022-10-17T03:39:13.724Z,81.70
2022-10-17T03:42:15.843Z,81.60
2022-10-17T03:45:18.225Z,81.60
2022-10-17T03:48:21.823Z,81.60
2022-10-17T03:51:24.255Z,81.60
2022-10-17T03:54:31.327Z,81.50
2022-10-17T03:57:35.977Z,81.40
2022-10-17T04:00:39.955Z,81.40
2022-10-17T04:03:43.243Z,81.40
2022-10-17T04:06:45.654Z,81.40
2022-10-17T04:09:47.766Z,81.30
2022-10-17T04:12:54.286Z,81.30
2022-10-17T04:15:58.418Z,81.30
2022-10-17T04:19:01.091Z,81.40
2022-10-17T04:22:08.641Z,81.20
2022-10-17T04:25:16.604Z,81.30
2022-10-17T04:28:21.540Z,81.10
2022-10-17T04:31:24.354Z,81.20
2022-10-17T04:34:50.155Z,81.90
2022-10-17T04:37:53.616Z,81.20
2022-10-17T04:41:03.948Z,81.10
2022-10-17T04:44:06.017Z,81.20
2022-10-17T04:47:11.702Z,81.20
2022-10-17T04:50:14.493Z,81.00
2022-10-17T04:53:17.162Z,81.10
2022-10-17T04:56:22.048Z,81.00
2022-10-17T04:59:24.180Z,81.00
2022-10-17T05:02:39.160Z,80.90
2022-10-17T05:05:42.207Z,81.60
2022-10-17T05:08:45.834Z,80.90
2022-10-17T05:11:47.958Z,80.90
2022-10-17T05:14:50.480Z,80.90
2022-10-17T05:17:56.122Z,80.90
2022-10-17T05:20:59.405Z,80.90
2022-10-17T05:24:01.693Z,80.90
2022-10-17T05:27:03.950Z,80.80
2022-10-17T05:30:07.047Z,80.80
2022-10-17T05:33:11.004Z,80.80
2022-10-17T05:36:13.256Z,80.80
2022-10-17T05:39:19.787Z,80.80
2022-10-17T05:42:24.215Z,80.80
2022-10-17T05:45:26.666Z,80.80
2022-10-17T05:48:28.721Z,80.90
2022-10-17T05:51:34.125Z,80.80
2022-10-17T05:54:38.298Z,80.90
2022-10-17T05:57:40.662Z,80.90
2022-10-17T06:00:47.465Z,80.90
2022-10-17T06:03:49.798Z,81.00
2022-10-17T06:06:52.443Z,81.00
2022-10-17T06:09:54.560Z,81.00
2022-10-17T06:12:57.681Z,81.00
2022-10-17T06:16:01.028Z,81.00
2022-10-17T06:19:04.051Z,81.00
2022-10-17T06:22:06.551Z,81.00
2022-10-17T06:25:10.071Z,81.00
2022-10-17T06:28:12.952Z,81.00
2022-10-17T06:31:17.480Z,81.10
2022-10-17T06:34:19.974Z,81.10
2022-10-17T06:37:22.475Z,81.10
2022-10-17T06:40:24.819Z,81.20
2022-10-17T06:43:28.149Z,81.20
2022-10-17T06:46:52.874Z,81.20
2022-10-17T06:49:56.326Z,81.10
2022-10-17T06:53:04.736Z,81.20
2022-10-17T06:56:23.347Z,81.20
2022-10-17T06:59:41.828Z,81.20
2022-10-17T07:02:47.046Z,81.30
2022-10-17T07:05:53.706Z,81.40
2022-10-17T07:08:56.402Z,81.50
2022-10-17T07:11:59.294Z,81.50
2022-10-17T07:15:02.716Z,81.50
2022-10-17T07:18:05.126Z,81.60
2022-10-17T07:21:08.734Z,81.60
2022-10-17T07:24:11.228Z,81.70
2022-10-17T07:27:16.306Z,81.70
2022-10-17T07:30:19.408Z,81.80
2022-10-17T07:33:32.749Z,82.10
2022-10-17T07:36:34.981Z,82.20
2022-10-17T07:39:40.216Z,82.40
2022-10-17T07:42:42.350Z,82.50
2022-10-17T07:45:44.557Z,83.30
2022-10-17T07:48:46.655Z,82.80
2022-10-17T07:51:50.718Z,82.80
2022-10-17T07:54:52.775Z,82.90
2022-10-17T07:57:55.000Z,82.90
2022-10-17T08:04:23.934Z,83.10
2022-10-17T08:07:29.300Z,83.30
2022-10-17T08:10:31.657Z,83.30
2022-10-17T08:13:34.310Z,83.30
2022-10-17T08:16:36.885Z,83.30
2022-10-17T08:19:40.537Z,83.30
2022-10-17T08:22:42.771Z,83.30
2022-10-17T08:25:44.844Z,83.30
2022-10-17T08:28:48.229Z,83.20
2022-10-17T08:31:54.110Z,83.30
2022-10-17T08:35:01.265Z,83.30
2022-10-17T08:38:03.784Z,83.40
2022-10-17T08:41:33.357Z,83.50
2022-10-17T08:45:08.656Z,83.50
2022-10-17T08:48:16.002Z,83.60
2022-10-17T08:51:29.242Z,83.50
2022-10-17T08:54:47.141Z,83.80
2022-10-17T08:57:49.552Z,83.80
2022-10-17T09:01:22.665Z,83.70
2022-10-17T09:05:01.814Z,83.80
2022-10-17T09:08:26.496Z,83.90
2022-10-17T09:11:45.368Z,83.90
2022-10-17T09:14:59.712Z,83.90
2022-10-17T09:18:21.094Z,83.90
2022-10-17T09:21:44.096Z,83.90
2022-10-17T09:25:07.000Z,84.10
2022-10-17T09:28:12.080Z,84.10
2022-10-17T09:31:42.426Z,84.00
2022-10-17T09:34:44.825Z,84.20
2022-10-17T09:37:47.470Z,84.20
2022-10-17T09:40:57.229Z,84.20
2022-10-17T09:44:14.781Z,84.30
2022-10-17T09:47:23.550Z,84.30
2022-10-17T09:50:27.170Z,84.40
2022-10-17T09:53:38.000Z,84.30
2022-10-17T09:56:59.995Z,84.40
2022-10-17T10:00:06.996Z,84.40
2022-10-17T10:03:26.261Z,84.60
2022-10-17T10:06:28.326Z,84.60
2022-10-17T10:09:36.902Z,84.40
2022-10-17T10:12:41.731Z,84.80
2022-10-17T10:15:48.262Z,84.80
2022-10-17T10:18:51.515Z,85.50
2022-10-17T10:21:59.098Z,84.70
2022-10-17T10:25:08.599Z,84.80
2022-10-17T10:28:12.145Z,84.90
2022-10-17T10:31:14.281Z,84.70
2022-10-17T10:34:30.211Z,84.80
2022-10-17T10:37:56.877Z,84.80
2022-10-17T10:41:07.910Z,84.80
2022-10-17T10:44:15.536Z,85.00
2022-10-17T10:47:23.225Z,85.00
2022-10-17T10:50:48.941Z,85.20
2022-10-17T10:54:06.762Z,85.00
2022-10-17T10:57:20.091Z,84.90
2022-10-17T11:00:26.560Z,85.10
2022-10-17T11:07:13.291Z,85.00
2022-10-17T11:10:22.100Z,85.10
2022-10-17T11:13:30.807Z,85.20
2022-10-17T11:16:46.212Z,85.30
2022-10-17T11:20:03.215Z,85.10
2022-10-17T11:23:20.769Z,85.10
2022-10-17T11:26:27.745Z,85.20
2022-10-17T11:29:33.019Z,85.20
2022-10-17T11:32:38.049Z,85.30
2022-10-17T11:35:44.518Z,85.40
2022-10-17T11:39:01.839Z,85.60
2022-10-17T11:42:10.313Z,85.60
2022-10-17T11:45:17.272Z,85.50
2022-10-17T11:48:41.186Z,85.50
2022-10-17T11:52:05.686Z,85.70
2022-10-17T11:55:31.933Z,85.70
2022-10-17T11:58:54.638Z,85.60
2022-10-17T12:02:05.153Z,85.60
2022-10-17T12:05:18.316Z,85.60
2022-10-17T12:08:51.307Z,85.70
2022-10-17T12:12:02.412Z,85.90
2022-10-17T12:15:13.983Z,86.00
2022-10-17T12:18:17.736Z,85.80
2022-10-17T12:21:19.940Z,86.00
2022-10-17T12:24:36.106Z,86.00
2022-10-17T12:27:43.648Z,86.00
2022-10-17T12:30:59.028Z,86.00
2022-10-17T12:34:03.175Z,86.00
2022-10-17T12:37:11.922Z,86.20
2022-10-17T12:40:52.586Z,86.20
2022-10-17T12:43:55.052Z,86.50
2022-10-17T12:47:08.044Z,86.20
2022-10-17T12:50:52.296Z,86.00
2022-10-17T12:54:12.141Z,86.00
2022-10-17T12:57:23.903Z,86.10
2022-10-17T13:01:11.628Z,86.00
2022-10-17T13:04:14.428Z,86.00
2022-10-17T13:07:22.413Z,86.10
2022-10-17T13:10:28.056Z,86.20
2022-10-17T13:13:43.426Z,86.10
2022-10-17T13:17:00.320Z,86.20
2022-10-17T13:20:02.606Z,86.20
2022-10-17T13:23:04.935Z,86.20
2022-10-17T13:26:20.587Z,86.20
2022-10-17T13:29:25.731Z,86.20
2022-10-17T13:32:36.789Z,86.10
2022-10-17T13:35:59.407Z,86.20
2022-10-17T13:39:12.496Z,86.20
2022-10-17T13:42:30.143Z,86.20
2022-10-17T13:45:37.008Z,86.10
2022-10-17T13:48:39.154Z,86.20
2022-10-17T13:51:45.156Z,86.10
2022-10-17T13:54:51.326Z,86.20
2022-10-17T13:57:53.747Z,86.30
2022-10-17T14:00:56.844Z,86.10
2022-10-17T14:04:20.071Z,86.30
2022-10-17T14:08:09.532Z,86.30
2022-10-17T14:11:22.165Z,86.10
2022-10-17T14:14:26.264Z,86.00
2022-10-17T14:17:30.098Z,86.00
2022-10-17T14:21:19.415Z,86.10
2022-10-17T14:24:22.600Z,86.20
2022-10-17T14:27:31.024Z,86.20
2022-10-17T14:30:55.613Z,86.10
2022-10-17T14:33:58.603Z,86.20
2022-10-17T14:37:01.289Z,86.20
2022-10-17T14:40:06.026Z,86.30
2022-10-17T14:43:27.714Z,86.10
2022-10-17T14:46:30.096Z,86.10
2022-10-17T14:49:40.522Z,86.20
2022-10-17T14:52:58.380Z,86.30
2022-10-17T14:56:06.216Z,86.20
2022-10-17T14:59:13.727Z,86.10
2022-10-17T15:02:21.332Z,86.20
2022-10-17T15:05:23.560Z,86.10
2022-10-17T15:08:25.899Z,87.00
2022-10-17T15:11:28.501Z,86.20
2022-10-17T15:14:30.703Z,86.10
2022-10-17T15:17:34.624Z,86.10
2022-10-17T15:20:37.389Z,86.20
2022-10-17T15:23:39.893Z,86.20
2022-10-17T15:26:42.109Z,86.10
2022-10-17T15:29:45.168Z,86.20
2022-10-17T15:32:47.718Z,86.10
2022-10-17T15:35:50.183Z,86.10
2022-10-17T15:38:55.749Z,86.00
2022-10-17T15:41:58.887Z,86.00
2022-10-17T15:45:01.050Z,86.00
2022-10-17T15:48:07.477Z,86.00
2022-10-17T15:51:10.041Z,86.00
2022-10-17T15:57:24.456Z,86.00
2022-10-17T16:00:26.589Z,86.00
2022-10-17T16:03:30.397Z,86.00
2022-10-17T16:06:32.475Z,86.00
2022-10-17T16:09:37.514Z,86.00
2022-10-17T16:12:42.759Z,86.10
2022-10-17T16:15:45.173Z,86.10
2022-10-17T16:18:47.471Z,86.00
2022-10-17T16:21:49.663Z,86.10
2022-10-17T16:24:58.361Z,86.10
2022-10-17T16:28:01.404Z,86.10
2022-10-17T16:31:03.526Z,86.10
2022-10-17T16:34:06.902Z,86.20
2022-10-17T16:37:09.114Z,86.20
2022-10-17T16:40:11.999Z,86.10
2022-10-17T16:43:14.275Z,86.00
2022-10-17T16:46:16.688Z,86.10
2022-10-17T16:49:18.878Z,86.00
2022-10-17T16:52:20.931Z,85.90
2022-10-17T16:55:23.084Z,86.00
2022-10-17T16:58:27.462Z,86.00
2022-10-17T17:01:29.586Z,85.90
2022-10-17T17:04:31.882Z,85.90
2022-10-17T17:07:34.292Z,85.90
2022-10-17T17:10:36.365Z,85.80
2022-10-17T17:13:39.282Z,85.80
2022-10-17T17:16:42.809Z,85.70
2022-10-17T17:19:45.099Z,85.80
2022-10-17T17:22:47.287Z,85.80
2022-10-17T17:25:50.793Z,85.70
2022-10-17T17:28:54.329Z,85.70
2022-10-17T17:31:56.553Z,86.40
2022-10-17T17:34:58.631Z,85.70
2022-10-17T17:38:03.126Z,85.80
2022-10-17T17:41:05.331Z,85.70
2022-10-17T17:44:11.221Z,85.70
2022-10-17T17:47:16.228Z,85.90
2022-10-17T17:50:18.798Z,85.70
2022-10-17T17:53:21.632Z,85.70
2022-10-17T17:56:26.970Z,85.80
2022-10-17T17:59:29.162Z,85.80
2022-10-17T18:02:31.680Z,85.80
2022-10-17T18:05:34.386Z,85.70
2022-10-17T18:08:36.751Z,85.80
2022-10-17T18:11:38.952Z,85.70
2022-10-17T18:14:41.152Z,85.70
2022-10-17T18:17:43.294Z,85.70
2022-10-17T18:20:45.432Z,85.70
2022-10-17T18:23:49.237Z,85.70
2022-10-17T18:26:54.011Z,85.80
2022-10-17T18:29:56.143Z,85.70
2022-10-17T18:32:58.192Z,85.70
2022-10-17T18:36:10.829Z,85.60
2022-10-17T18:39:12.939Z,85.70
2022-10-17T18:42:15.038Z,85.60
2022-10-17T18:45:17.574Z,85.60
2022-10-17T18:48:19.743Z,85.70
2022-10-17T18:51:24.422Z,85.60
2022-10-17T18:54:26.518Z,85.50
2022-10-17T18:57:28.933Z,85.50
2022-10-17T19:00:31.283Z,85.50
2022-10-17T19:03:33.842Z,85.50
2022-10-17T19:06:36.268Z,85.40
2022-10-17T19:09:38.463Z,85.50
2022-10-17T19:12:40.599Z,85.40
2022-10-17T19:15:42.743Z,85.40
2022-10-17T19:18:50.203Z,85.40
2022-10-17T19:21:53.018Z,85.50
2022-10-17T19:24:55.207Z,85.40
2022-10-17T19:27:58.010Z,85.50
2022-10-17T19:31:00.613Z,85.50
2022-10-17T19:34:02.886Z,85.40
2022-10-17T19:37:05.170Z,85.40
2022-10-17T19:40:08.090Z,85.40
2022-10-17T19:43:10.185Z,85.40
2022-10-17T19:46:18.226Z,85.30
2022-10-17T19:49:20.480Z,85.30
2022-10-17T19:52:22.721Z,85.30
2022-10-17T19:55:24.855Z,85.30
2022-10-17T19:58:28.210Z,86.00
2022-10-17T20:01:32.632Z,85.30
2022-10-17T20:04:34.741Z,85.20
2022-10-17T20:07:37.233Z,85.20
2022-10-17T20:10:39.651Z,85.20
2022-10-17T20:13:42.056Z,85.20
2022-10-17T20:16:44.994Z,85.90
2022-10-17T20:19:47.238Z,85.20
2022-10-17T20:22:49.406Z,85.20
2022-10-17T20:26:13.578Z,85.20
2022-10-17T20:29:25.366Z,85.10
2022-10-17T20:32:28.556Z,85.20
2022-10-17T20:35:30.858Z,85.20
2022-10-17T20:38:32.951Z,85.10
2022-10-17T20:41:35.272Z,85.10
2022-10-17T20:44:37.525Z,85.10
2022-10-17T20:47:47.095Z,85.10
2022-10-17T20:50:51.341Z,85.00
2022-10-17T20:53:53.955Z,85.10
2022-10-17T20:56:58.664Z,85.00
2022-10-17T21:00:05.322Z,85.10
2022-10-17T21:03:07.897Z,85.10
2022-10-17T21:06:10.873Z,85.00
2022-10-17T21:09:13.105Z,85.10
2022-10-17T21:12:21.838Z,85.00
2022-10-17T21:15:33.385Z,85.00
2022-10-17T21:18:35.844Z,85.00
2022-10-17T21:21:40.592Z,84.90
2022-10-17T21:24:42.764Z,84.90
2022-10-17T21:27:44.981Z,85.00
2022-10-17T21:30:47.207Z,84.90
2022-10-17T21:33:51.907Z,85.00
2022-10-17T21:36:54.073Z,84.90
2022-10-17T21:39:56.160Z,84.90
2022-10-17T21:42:58.316Z,84.90
2022-10-17T21:46:11.545Z,84.80
2022-10-17T21:49:16.216Z,84.90
2022-10-17T21:52:18.302Z,84.90
2022-10-17T21:55:20.328Z,84.90
2022-10-17T21:58:22.460Z,84.90
2022-10-17T22:01:29.935Z,84.90
2022-10-17T22:04:32.113Z,84.90
2022-10-17T22:07:34.628Z,84.90
2022-10-17T22:10:37.950Z,84.90
2022-10-17T22:13:40.546Z,85.00
2022-10-17T22:16:45.122Z,85.00
2022-10-17T22:19:47.829Z,85.00
2022-10-17T22:22:49.891Z,85.00
2022-10-17T22:25:57.316Z,85.00
2022-10-17T22:28:59.926Z,85.00
2022-10-17T22:32:02.055Z,85.00
2022-10-17T22:35:04.481Z,85.70
2022-10-17T22:38:06.677Z,85.00
2022-10-17T22:41:08.972Z,85.00
2022-10-17T22:44:11.105Z,85.00
2022-10-17T22:47:13.504Z,85.00
2022-10-17T22:50:15.741Z,84.90
2022-10-17T22:53:24.531Z,84.90
2022-10-17T22:56:26.706Z,84.90
2022-10-17T22:59:28.909Z,84.90
2022-10-17T23:02:32.301Z,84.80
2022-10-17T23:05:34.724Z,84.90
2022-10-17T23:08:37.387Z,84.80
2022-10-17T23:11:39.728Z,84.80
2022-10-17T23:14:43.629Z,84.80
2022-10-17T23:17:45.787Z,84.80
2022-10-17T23:20:48.626Z,84.70
2022-10-17T23:23:50.870Z,84.70
2022-10-17T23:26:53.115Z,84.70
2022-10-17T23:29:55.361Z,84.60
2022-10-17T23:32:57.573Z,84.70
2022-10-17T23:35:59.684Z,84.70
2022-10-17T23:39:02.210Z,84.60
2022-10-17T23:42:04.469Z,84.70
2022-10-17T23:45:07.316Z,84.70
2022-10-17T23:48:09.489Z,84.70
2022-10-17T23:51:11.999Z,84.70
2022-10-17T23:54:14.177Z,84.70
2022-10-17T23:57:16.395Z,84.70
